sensor_id;sensor_type;location;lat;lon;timestamp;pressure;altitude;pressure_sealevel;temperature;humidity
13348;BME280;6743;49.934;9.138;2023-11-21T00:02:20;99780.94;;;9.58;100.00
13348;BME280;6743;49.934;9.138;2023-11-21T00:04:46;99786.22;;;9.66;100.00
13348;BME280;6743;49.934;9.138;2023-11-21T00:07:13;99792.50;;;9.65;100.00
13348;BME280;6743;49.934;9.138;2023-11-21T00:09:40;99787.19;;;9.65;100.00
13348;BME280;6743;49.934;9.138;2023-11-21T00:12:07;99795.97;;;9.66;100.00
13348;BME280;6743;49.934;9.138;2023-11-21T00:14:35;99790.84;;;9.64;100.00
13348;BME280;6743;49.934;9.138;2023-11-21T00:17:01;99794.31;;;9.65;100.00
13348;BME280;6743;49.934;9.138;2023-11-21T00:19:27;99793.50;;;9.64;100.00
13348;BME280;6743;49.934;9.138;2023-11-21T00:21:53;99799.44;;;9.66;100.00
13348;BME280;6743;49.934;9.138;2023-11-21T00:24:19;99790.69;;;9.66;100.00
13348;BME280;6743;49.934;9.138;2023-11-21T00:26:45;99785.88;;;9.61;100.00
13348;BME280;6743;49.934;9.138;2023-11-21T00:29:14;99795.31;;;9.64;100.00
13348;BME280;6743;49.934;9.138;2023-11-21T00:31:42;99790.84;;;9.64;100.00
13348;BME280;6743;49.934;9.138;2023-11-21T00:34:08;99803.91;;;9.66;100.00
13348;BME280;6743;49.934;9.138;2023-11-21T00:36:34;99806.56;;;9.66;100.00
13348;BME280;6743;49.934;9.138;2023-11-21T00:39:00;99806.72;;;9.64;100.00
13348;BME280;6743;49.934;9.138;2023-11-21T00:41:28;99796.13;;;9.64;100.00
13348;BME280;6743;49.934;9.138;2023-11-21T00:43:54;99798.78;;;9.64;100.00
13348;BME280;6743;49.934;9.138;2023-11-21T00:46:21;99796.13;;;9.64;100.00
13348;BME280;6743;49.934;9.138;2023-11-21T00:48:47;99792.66;;;9.64;100.00
13348;BME280;6743;49.934;9.138;2023-11-21T00:51:13;99796.13;;;9.64;100.00
13348;BME280;6743;49.934;9.138;2023-11-21T00:53:39;99788.53;;;9.61;100.00
13348;BME280;6743;49.934;9.138;2023-11-21T00:56:05;99793.81;;;9.61;100.00
13348;BME280;6743;49.934;9.138;2023-11-21T00:58:32;99792.81;;;9.62;100.00
13348;BME280;6743;49.934;9.138;2023-11-21T01:00:57;99800.78;;;9.62;100.00
13348;BME280;6743;49.934;9.138;2023-11-21T01:03:24;99789.19;;;9.63;100.00
13348;BME280;6743;49.934;9.138;2023-11-21T01:05:50;99793.66;;;9.63;100.00
13348;BME280;6743;49.934;9.138;2023-11-21T01:08:16;99798.13;;;9.62;100.00
13348;BME280;6743;49.934;9.138;2023-11-21T01:10:42;99794.47;;;9.63;100.00
13348;BME280;6743;49.934;9.138;2023-11-21T01:13:08;99802.59;;;9.62;100.00
13348;BME280;6743;49.934;9.138;2023-11-21T01:15:34;99799.94;;;9.62;100.00
13348;BME280;6743;49.934;9.138;2023-11-21T01:18:00;99806.91;;;9.63;100.00
13348;BME280;6743;49.934;9.138;2023-11-21T01:20:26;99712.06;;;9.03;100.00
13348;BME280;6743;49.934;9.138;2023-11-21T01:22:52;99801.59;;;9.63;100.00
13348;BME280;6743;49.934;9.138;2023-11-21T01:25:19;99808.56;;;9.64;100.00
13348;BME280;6743;49.934;9.138;2023-11-21T01:27:46;99806.72;;;9.64;100.00
13348;BME280;6743;49.934;9.138;2023-11-21T01:30:13;99810.37;;;9.63;100.00
13348;BME280;6743;49.934;9.138;2023-11-21T01:32:39;99807.06;;;9.61;100.00
13348;BME280;6743;49.934;9.138;2023-11-21T01:35:06;99818.97;;;9.65;100.00
13348;BME280;6743;49.934;9.138;2023-11-21T01:37:32;99810.37;;;9.63;100.00
13348;BME280;6743;49.934;9.138;2023-11-21T01:39:58;99812.19;;;9.63;100.00
13348;BME280;6743;49.934;9.138;2023-11-21T01:42:24;99818.31;;;9.63;100.00
13348;BME280;6743;49.934;9.138;2023-11-21T01:44:50;99821.78;;;9.64;100.00
13348;BME280;6743;49.934;9.138;2023-11-21T01:47:17;99817.66;;;9.61;100.00
13348;BME280;6743;49.934;9.138;2023-11-21T01:49:43;99817.50;;;9.63;100.00
13348;BME280;6743;49.934;9.138;2023-11-21T01:52:11;99812.34;;;9.61;100.00
13348;BME280;6743;49.934;9.138;2023-11-21T01:54:38;99827.44;;;9.61;100.00
13348;BME280;6743;49.934;9.138;2023-11-21T01:57:05;99822.16;;;9.61;100.00
13348;BME280;6743;49.934;9.138;2023-11-21T01:59:34;99814.38;;;9.59;100.00
13348;BME280;6743;49.934;9.138;2023-11-21T02:02:02;99807.41;;;9.58;100.00
13348;BME280;6743;49.934;9.138;2023-11-21T02:04:30;99815.53;;;9.57;100.00
13348;BME280;6743;49.934;9.138;2023-11-21T02:06:57;99810.37;;;9.55;100.00
13348;BME280;6743;49.934;9.138;2023-11-21T02:09:25;99792.72;;;9.39;100.00
13348;BME280;6743;49.934;9.138;2023-11-21T02:11:53;99816.03;;;9.52;100.00
13348;BME280;6743;49.934;9.138;2023-11-21T02:14:19;99812.06;;;9.48;100.00
13348;BME280;6743;49.934;9.138;2023-11-21T02:16:47;99814.53;;;9.49;100.00
13348;BME280;6743;49.934;9.138;2023-11-21T02:19:18;99813.06;;;9.47;100.00
13348;BME280;6743;49.934;9.138;2023-11-21T02:21:45;99814.06;;;9.46;100.00
13348;BME280;6743;49.934;9.138;2023-11-21T02:24:12;99817.69;;;9.45;100.00
13348;BME280;6743;49.934;9.138;2023-11-21T02:26:38;99819.69;;;9.43;100.00
13348;BME280;6743;49.934;9.138;2023-11-21T02:29:04;99813.72;;;9.41;100.00
13348;BME280;6743;49.934;9.138;2023-11-21T02:31:30;99808.63;;;9.39;100.00
13348;BME280;6743;49.934;9.138;2023-11-21T02:33:58;99812.25;;;9.38;100.00
13348;BME280;6743;49.934;9.138;2023-11-21T02:36:24;99813.41;;;9.36;100.00
13348;BME280;6743;49.934;9.138;2023-11-21T02:38:50;99768.78;;;9.08;100.00
13348;BME280;6743;49.934;9.138;2023-11-21T02:41:17;99808.47;;;9.33;100.00
13348;BME280;6743;49.934;9.138;2023-11-21T02:43:43;99812.94;;;9.32;100.00
13348;BME280;6743;49.934;9.138;2023-11-21T02:46:09;99754.25;;;8.96;100.00
13348;BME280;6743;49.934;9.138;2023-11-21T02:48:34;99813.75;;;9.33;100.00
13348;BME280;6743;49.934;9.138;2023-11-21T02:51:01;99811.28;;;9.31;100.00
13348;BME280;6743;49.934;9.138;2023-11-21T02:53:27;99807.78;;;9.31;100.00
13348;BME280;6743;49.934;9.138;2023-11-21T02:55:53;99819.38;;;9.30;100.00
13348;BME280;6743;49.934;9.138;2023-11-21T02:58:20;99813.91;;;9.31;100.00
13348;BME280;6743;49.934;9.138;2023-11-21T03:00:46;99812.25;;;9.30;100.00
13348;BME280;6743;49.934;9.138;2023-11-21T03:03:12;99816.56;;;9.31;100.00
13348;BME280;6743;49.934;9.138;2023-11-21T03:05:40;99810.28;;;9.32;100.00
13348;BME280;6743;49.934;9.138;2023-11-21T03:08:05;99811.94;;;9.33;100.00
13348;BME280;6743;49.934;9.138;2023-11-21T03:10:31;99808.47;;;9.33;100.00
13348;BME280;6743;49.934;9.138;2023-11-21T03:12:58;99820.88;;;9.32;100.00
13348;BME280;6743;49.934;9.138;2023-11-21T03:15:25;99813.91;;;9.31;100.00
13348;BME280;6743;49.934;9.138;2023-11-21T03:17:51;99814.91;;;9.30;100.00
13348;BME280;6743;49.934;9.138;2023-11-21T03:20:17;99807.78;;;9.31;100.00
13348;BME280;6743;49.934;9.138;2023-11-21T03:22:43;99805.00;;;9.32;100.00
13348;BME280;6743;49.934;9.138;2023-11-21T03:25:10;99758.53;;;9.05;100.00
13348;BME280;6743;49.934;9.138;2023-11-21T03:27:36;99803.16;;;9.33;100.00
13348;BME280;6743;49.934;9.138;2023-11-21T03:30:03;99803.34;;;9.31;100.00
13348;BME280;6743;49.934;9.138;2023-11-21T03:32:33;99805.97;;;9.31;100.00
13348;BME280;6743;49.934;9.138;2023-11-21T03:34:59;99805.97;;;9.31;100.00
13348;BME280;6743;49.934;9.138;2023-11-21T03:37:27;99816.56;;;9.31;100.00
13348;BME280;6743;49.934;9.138;2023-11-21T03:39:54;99774.75;;;9.02;100.00
13348;BME280;6743;49.934;9.138;2023-11-21T03:42:20;99809.63;;;9.30;100.00
13348;BME280;6743;49.934;9.138;2023-11-21T03:44:46;99815.72;;;9.31;100.00
13348;BME280;6743;49.934;9.138;2023-11-21T03:47:12;99821.84;;;9.31;100.00
13348;BME280;6743;49.934;9.138;2023-11-21T03:49:39;99826.31;;;9.31;100.00
13348;BME280;6743;49.934;9.138;2023-11-21T03:52:05;99828.31;;;9.29;100.00
13348;BME280;6743;49.934;9.138;2023-11-21T03:54:33;99821.34;;;9.28;100.00
13348;BME280;6743;49.934;9.138;2023-11-21T03:56:59;99837.22;;;9.28;100.00
13348;BME280;6743;49.934;9.138;2023-11-21T03:59:25;99831.09;;;9.27;100.00
13348;BME280;6743;49.934;9.138;2023-11-21T04:01:52;99829.28;;;9.28;100.00
13348;BME280;6743;49.934;9.138;2023-11-21T04:04:20;99831.94;;;9.28;100.00
13348;BME280;6743;49.934;9.138;2023-11-21T04:06:46;99830.28;;;9.27;100.00
13348;BME280;6743;49.934;9.138;2023-11-21T04:09:13;99830.28;;;9.27;100.00
13348;BME280;6743;49.934;9.138;2023-11-21T04:11:39;99831.94;;;9.28;100.00
13348;BME280;6743;49.934;9.138;2023-11-21T04:14:05;99819.72;;;9.19;100.00
13348;BME280;6743;49.934;9.138;2023-11-21T04:16:32;99838.22;;;9.27;100.00
13348;BME280;6743;49.934;9.138;2023-11-21T04:18:58;99835.56;;;9.27;100.00
13348;BME280;6743;49.934;9.138;2023-11-21T04:21:24;99844.34;;;9.27;100.00
13348;BME280;6743;49.934;9.138;2023-11-21T04:23:51;99853.94;;;9.28;100.00
13348;BME280;6743;49.934;9.138;2023-11-21T04:26:18;99854.94;;;9.27;100.00
13348;BME280;6743;49.934;9.138;2023-11-21T04:28:44;99856.75;;;9.27;100.00
13348;BME280;6743;49.934;9.138;2023-11-21T04:31:10;99849.63;;;9.27;100.00
13348;BME280;6743;49.934;9.138;2023-11-21T04:33:36;99859.41;;;9.27;100.00
13348;BME280;6743;49.934;9.138;2023-11-21T04:36:02;99864.69;;;9.27;100.00
13348;BME280;6743;49.934;9.138;2023-11-21T04:38:28;99864.06;;;9.25;100.00
13348;BME280;6743;49.934;9.138;2023-11-21T04:40:55;99859.75;;;9.24;100.00
13348;BME280;6743;49.934;9.138;2023-11-21T04:43:22;99861.56;;;9.23;100.00
13348;BME280;6743;49.934;9.138;2023-11-21T04:45:48;99857.25;;;9.22;100.00
13348;BME280;6743;49.934;9.138;2023-11-21T04:48:14;99859.22;;;9.20;100.00
13348;BME280;6743;49.934;9.138;2023-11-21T04:50:40;99862.06;;;9.19;100.00
13348;BME280;6743;49.934;9.138;2023-11-21T04:53:06;99865.69;;;9.18;100.00
13348;BME280;6743;49.934;9.138;2023-11-21T04:55:32;99863.72;;;9.12;100.00
13348;BME280;6743;49.934;9.138;2023-11-21T04:57:59;99869.66;;;9.14;100.00
13348;BME280;6743;49.934;9.138;2023-11-21T05:00:25;99874.13;;;9.13;100.00
13348;BME280;6743;49.934;9.138;2023-11-21T05:02:51;99864.53;;;9.04;100.00
13348;BME280;6743;49.934;9.138;2023-11-21T05:05:17;99865.69;;;9.01;100.00
13348;BME280;6743;49.934;9.138;2023-11-21T05:07:44;99871.81;;;9.10;100.00
13348;BME280;6743;49.934;9.138;2023-11-21T05:10:10;99872.81;;;9.09;100.00
13348;BME280;6743;49.934;9.138;2023-11-21T05:12:37;99882.56;;;9.08;100.00
13348;BME280;6743;49.934;9.138;2023-11-21T05:15:05;99886.19;;;9.07;100.00
13348;BME280;6743;49.934;9.138;2023-11-21T05:17:35;99890.00;;;9.05;100.00
13348;BME280;6743;49.934;9.138;2023-11-21T05:20:01;99892.16;;;9.09;100.00
13348;BME280;6743;49.934;9.138;2023-11-21T05:22:29;99897.28;;;9.11;100.00
13348;BME280;6743;49.934;9.138;2023-11-21T05:24:55;99900.94;;;9.10;100.00
13348;BME280;6743;49.934;9.138;2023-11-21T05:27:21;99908.87;;;9.10;100.00
13348;BME280;6743;49.934;9.138;2023-11-21T05:29:47;99908.72;;;9.12;100.00
13348;BME280;6743;49.934;9.138;2023-11-21T05:32:13;99910.53;;;9.11;100.00
13348;BME280;6743;49.934;9.138;2023-11-21T05:34:39;99914.16;;;9.10;100.00
13348;BME280;6743;49.934;9.138;2023-11-21T05:37:06;99916.81;;;9.10;100.00
13348;BME280;6743;49.934;9.138;2023-11-21T05:39:32;99918.09;;;9.06;100.00
13348;BME280;6743;49.934;9.138;2023-11-21T05:41:58;99937.81;;;9.12;100.00
13348;BME280;6743;49.934;9.138;2023-11-21T05:44:25;99923.75;;;9.11;100.00
13348;BME280;6743;49.934;9.138;2023-11-21T05:46:51;99926.56;;;9.09;100.00
13348;BME280;6743;49.934;9.138;2023-11-21T05:49:18;99937.28;;;9.08;100.00
13348;BME280;6743;49.934;9.138;2023-11-21T05:51:47;99931.16;;;9.07;100.00
13348;BME280;6743;49.934;9.138;2023-11-21T05:54:13;99937.28;;;9.08;100.00
13348;BME280;6743;49.934;9.138;2023-11-21T05:56:39;99938.13;;;9.08;100.00
13348;BME280;6743;49.934;9.138;2023-11-21T05:59:05;99932.84;;;9.08;100.00
13348;BME280;6743;49.934;9.138;2023-11-21T06:01:32;99934.50;;;9.09;100.00
13348;BME280;6743;49.934;9.138;2023-11-21T06:03:58;99937.28;;;9.08;100.00
13348;BME280;6743;49.934;9.138;2023-11-21T06:06:25;99939.94;;;9.08;100.00
13348;BME280;6743;49.934;9.138;2023-11-21T06:08:52;99933.81;;;9.07;100.00
13348;BME280;6743;49.934;9.138;2023-11-21T06:11:17;99947.87;;;9.08;100.00
13348;BME280;6743;49.934;9.138;2023-11-21T06:13:44;99947.06;;;9.07;100.00
13348;BME280;6743;49.934;9.138;2023-11-21T06:16:10;99951.50;;;9.07;100.00
13348;BME280;6743;49.934;9.138;2023-11-21T06:18:36;99948.22;;;9.05;100.00
13348;BME280;6743;49.934;9.138;2023-11-21T06:21:02;99957.16;;;9.04;100.00
13348;BME280;6743;49.934;9.138;2023-11-21T06:23:28;99961.59;;;9.03;100.00
13348;BME280;6743;49.934;9.138;2023-11-21T06:25:55;99964.41;;;9.02;100.00
13348;BME280;6743;49.934;9.138;2023-11-21T06:28:22;99965.56;;;8.99;100.00
13348;BME280;6743;49.934;9.138;2023-11-21T06:30:48;99971.66;;;9.00;100.00
13348;BME280;6743;49.934;9.138;2023-11-21T06:33:16;99972.66;;;8.99;100.00
13348;BME280;6743;49.934;9.138;2023-11-21T06:35:42;99971.84;;;8.98;100.00
13348;BME280;6743;49.934;9.138;2023-11-21T06:38:10;99982.44;;;8.98;100.00
13348;BME280;6743;49.934;9.138;2023-11-21T06:40:37;99979.59;;;9.00;100.00
13348;BME280;6743;49.934;9.138;2023-11-21T06:43:03;99988.53;;;8.99;100.00
13348;BME280;6743;49.934;9.138;2023-11-21T06:45:30;99985.87;;;8.99;100.00
13348;BME280;6743;49.934;9.138;2023-11-21T06:47:56;99988.72;;;8.97;100.00
13348;BME280;6743;49.934;9.138;2023-11-21T06:50:22;99994.66;;;8.99;100.00
13348;BME280;6743;49.934;9.138;2023-11-21T06:52:48;99992.00;;;8.99;100.00
13348;BME280;6743;49.934;9.138;2023-11-21T06:55:14;99995.47;;;9.00;100.00
13348;BME280;6743;49.934;9.138;2023-11-21T06:57:42;100003.25;;;9.01;100.00
13348;BME280;6743;49.934;9.138;2023-11-21T07:00:09;99975.75;;;8.86;100.00
13348;BME280;6743;49.934;9.138;2023-11-21T07:02:35;100004.09;;;9.02;100.00
13348;BME280;6743;49.934;9.138;2023-11-21T07:05:01;100007.56;;;9.02;100.00
13348;BME280;6743;49.934;9.138;2023-11-21T07:07:27;100011.06;;;9.03;100.00
13348;BME280;6743;49.934;9.138;2023-11-21T07:09:53;100010.22;;;9.02;100.00
13348;BME280;6743;49.934;9.138;2023-11-21T07:12:19;100016.34;;;9.03;100.00
13348;BME280;6743;49.934;9.138;2023-11-21T07:14:49;100025.94;;;9.04;100.00
13348;BME280;6743;49.934;9.138;2023-11-21T07:17:15;99960.50;;;8.64;100.00
13348;BME280;6743;49.934;9.138;2023-11-21T07:19:42;100024.44;;;9.01;100.00
13348;BME280;6743;49.934;9.138;2023-11-21T07:22:08;100037.84;;;9.08;100.00
13348;BME280;6743;49.934;9.138;2023-11-21T07:24:34;100001.22;;;8.87;100.00
13348;BME280;6743;49.934;9.138;2023-11-21T07:27:02;100036.87;;;9.09;100.00
13348;BME280;6743;49.934;9.138;2023-11-21T07:29:30;100049.94;;;9.11;100.00
13348;BME280;6743;49.934;9.138;2023-11-21T07:31:57;100050.63;;;9.13;100.00
13348;BME280;6743;49.934;9.138;2023-11-21T07:34:23;100057.72;;;9.12;100.00
13348;BME280;6743;49.934;9.138;2023-11-21T07:36:49;100062.84;;;9.14;100.00
13348;BME280;6743;49.934;9.138;2023-11-21T07:39:15;100062.69;;;9.15;100.00
13348;BME280;6743;49.934;9.138;2023-11-21T07:41:41;100073.78;;;9.19;100.00
13348;BME280;6743;49.934;9.138;2023-11-21T07:44:14;100071.63;;;9.22;100.00
13348;BME280;6743;49.934;9.138;2023-11-21T07:46:56;100083.06;;;9.23;100.00
13348;BME280;6743;49.934;9.138;2023-11-21T07:49:23;100081.41;;;9.22;100.00
13348;BME280;6743;49.934;9.138;2023-11-21T07:51:49;100090.31;;;9.21;100.00
13348;BME280;6743;49.934;9.138;2023-11-21T07:54:15;100083.38;;;9.20;100.00
13348;BME280;6743;49.934;9.138;2023-11-21T07:56:41;100017.72;;;8.73;100.00
13348;BME280;6743;49.934;9.138;2023-11-21T07:59:09;100089.34;;;9.22;100.00
13348;BME280;6743;49.934;9.138;2023-11-21T08:01:36;100061.81;;;9.06;100.00
13348;BME280;6743;49.934;9.138;2023-11-21T08:04:02;100090.84;;;9.24;100.00
13348;BME280;6743;49.934;9.138;2023-11-21T08:06:29;100091.69;;;9.25;100.00
13348;BME280;6743;49.934;9.138;2023-11-21T08:08:55;100090.69;;;9.26;100.00
13348;BME280;6743;49.934;9.138;2023-11-21T08:11:21;100086.03;;;9.28;100.00
13348;BME280;6743;49.934;9.138;2023-11-21T08:13:47;100089.38;;;9.30;100.00
13348;BME280;6743;49.934;9.138;2023-11-21T08:16:13;100098.16;;;9.30;100.00
13348;BME280;6743;49.934;9.138;2023-11-21T08:18:39;100048.59;;;9.06;100.00
13348;BME280;6743;49.934;9.138;2023-11-21T08:21:06;100093.53;;;9.32;100.00
13348;BME280;6743;49.934;9.138;2023-11-21T08:23:33;100096.00;;;9.34;100.00
13348;BME280;6743;49.934;9.138;2023-11-21T08:25:59;100094.03;;;9.36;100.00
13348;BME280;6743;49.934;9.138;2023-11-21T08:28:27;100110.44;;;9.39;100.00
13348;BME280;6743;49.934;9.138;2023-11-21T08:30:53;100095.19;;;9.41;100.00
13348;BME280;6743;49.934;9.138;2023-11-21T08:33:19;100102.00;;;9.44;100.00
13348;BME280;6743;49.934;9.138;2023-11-21T08:35:45;100101.69;;;9.47;100.00
13348;BME280;6743;49.934;9.138;2023-11-21T08:38:12;100104.66;;;9.52;100.00
13348;BME280;6743;49.934;9.138;2023-11-21T08:40:38;100084.59;;;9.41;100.00
13348;BME280;6743;49.934;9.138;2023-11-21T08:43:04;100109.31;;;9.58;100.00
13348;BME280;6743;49.934;9.138;2023-11-21T08:45:30;100110.63;;;9.62;100.00
13348;BME280;6743;49.934;9.138;2023-11-21T08:47:59;100120.41;;;9.62;100.00
13348;BME280;6743;49.934;9.138;2023-11-21T08:50:25;100114.94;;;9.63;100.00
13348;BME280;6743;49.934;9.138;2023-11-21T08:52:51;100123.56;;;9.65;100.00
13348;BME280;6743;49.934;9.138;2023-11-21T08:55:18;100128.03;;;9.65;100.00
13348;BME280;6743;49.934;9.138;2023-11-21T08:57:45;100130.84;;;9.63;100.00
13348;BME280;6743;49.934;9.138;2023-11-21T09:00:12;100144.41;;;9.60;100.00
13348;BME280;6743;49.934;9.138;2023-11-21T09:02:39;100145.06;;;9.62;100.00
13348;BME280;6743;49.934;9.138;2023-11-21T09:05:07;100158.16;;;9.64;100.00
13348;BME280;6743;49.934;9.138;2023-11-21T09:07:34;100158.50;;;9.69;100.00
13348;BME280;6743;49.934;9.138;2023-11-21T09:10:00;100163.97;;;9.67;100.00
13348;BME280;6743;49.934;9.138;2023-11-21T09:12:27;100148.87;;;9.60;100.00
13348;BME280;6743;49.934;9.138;2023-11-21T09:14:53;100158.84;;;9.74;100.00
13348;BME280;6743;49.934;9.138;2023-11-21T09:17:19;100162.97;;;9.76;100.00
13348;BME280;6743;49.934;9.138;2023-11-21T09:19:45;100167.81;;;9.81;100.00
13348;BME280;6743;49.934;9.138;2023-11-21T09:22:15;100170.28;;;9.82;100.00
13348;BME280;6743;49.934;9.138;2023-11-21T09:24:41;100179.91;;;9.83;100.00
13348;BME280;6743;49.934;9.138;2023-11-21T09:27:07;100174.28;;;9.86;100.00
13348;BME280;6743;49.934;9.138;2023-11-21T09:29:35;100178.25;;;9.91;100.00
13348;BME280;6743;49.934;9.138;2023-11-21T09:32:03;100186.06;;;9.92;100.00
13348;BME280;6743;49.934;9.138;2023-11-21T09:34:32;100184.91;;;9.95;100.00
13348;BME280;6743;49.934;9.138;2023-11-21T09:36:58;100190.84;;;9.97;100.00
13348;BME280;6743;49.934;9.138;2023-11-21T09:39:24;100202.13;;;9.99;100.00
13348;BME280;6743;49.934;9.138;2023-11-21T09:41:51;100200.63;;;9.96;100.00
13348;BME280;6743;49.934;9.138;2023-11-21T09:44:22;100209.09;;;10.00;100.00
13348;BME280;6743;49.934;9.138;2023-11-21T09:46:58;100213.72;;;9.98;100.00
13348;BME280;6743;49.934;9.138;2023-11-21T09:49:26;100215.91;;;10.02;100.00
13348;BME280;6743;49.934;9.138;2023-11-21T09:51:54;100223.50;;;10.05;100.00
13348;BME280;6743;49.934;9.138;2023-11-21T09:54:21;100230.63;;;10.05;100.00
13348;BME280;6743;49.934;9.138;2023-11-21T09:56:48;100227.66;;;10.08;100.00
13348;BME280;6743;49.934;9.138;2023-11-21T09:59:15;100222.84;;;10.11;100.00
13348;BME280;6743;49.934;9.138;2023-11-21T10:01:42;100229.50;;;10.15;100.00
13348;BME280;6743;49.934;9.138;2023-11-21T10:04:09;100228.38;;;10.18;100.00
13348;BME280;6743;49.934;9.138;2023-11-21T10:06:38;100226.41;;;10.20;100.00
13348;BME280;6743;49.934;9.138;2023-11-21T10:09:04;100236.69;;;10.23;100.00
13348;BME280;6743;49.934;9.138;2023-11-21T10:11:38;100234.38;;;10.28;100.00
13348;BME280;6743;49.934;9.138;2023-11-21T10:14:08;100232.88;;;10.25;100.00
13348;BME280;6743;49.934;9.138;2023-11-21T10:16:36;100231.56;;;10.30;100.00
13348;BME280;6743;49.934;9.138;2023-11-21T10:19:04;100234.69;;;10.33;100.00
13348;BME280;6743;49.934;9.138;2023-11-21T10:21:32;100233.87;;;10.33;100.00
13348;BME280;6743;49.934;9.138;2023-11-21T10:23:59;100234.69;;;10.33;100.00
13348;BME280;6743;49.934;9.138;2023-11-21T10:26:26;100231.91;;;10.35;100.00
13348;BME280;6743;49.934;9.138;2023-11-21T10:28:56;100231.22;;;10.41;100.00
13348;BME280;6743;49.934;9.138;2023-11-21T10:31:22;100233.87;;;10.41;100.00
13348;BME280;6743;49.934;9.138;2023-11-21T10:33:49;100238.34;;;10.40;100.00
13348;BME280;6743;49.934;9.138;2023-11-21T10:36:25;100241.00;;;10.40;100.00
13348;BME280;6743;49.934;9.138;2023-11-21T10:38:52;100242.66;;;10.41;100.00
13348;BME280;6743;49.934;9.138;2023-11-21T10:41:19;100247.66;;;10.36;100.00
13348;BME280;6743;49.934;9.138;2023-11-21T10:43:45;100256.59;;;10.35;100.00
13348;BME280;6743;49.934;9.138;2023-11-21T10:46:11;100260.53;;;10.31;100.00
13348;BME280;6743;49.934;9.138;2023-11-21T10:48:37;100252.25;;;10.26;100.00
13348;BME280;6743;49.934;9.138;2023-11-21T10:51:06;100254.72;;;10.19;100.00
13348;BME280;6743;49.934;9.138;2023-11-21T10:53:33;100252.38;;;10.16;100.00
13348;BME280;6743;49.934;9.138;2023-11-21T10:56:05;100260.38;;;10.24;100.00
13348;BME280;6743;49.934;9.138;2023-11-21T10:58:32;100267.03;;;10.29;100.00
13348;BME280;6743;49.934;9.138;2023-11-21T11:00:59;100263.84;;;10.25;100.00
13348;BME280;6743;49.934;9.138;2023-11-21T11:03:25;100263.69;;;10.26;100.00
13348;BME280;6743;49.934;9.138;2023-11-21T11:05:52;100256.72;;;10.25;100.00
13348;BME280;6743;49.934;9.138;2023-11-21T11:08:21;100271.34;;;10.30;100.00
13348;BME280;6743;49.934;9.138;2023-11-21T11:10:51;100266.53;;;10.33;100.00
13348;BME280;6743;49.934;9.138;2023-11-21T11:13:18;100253.94;;;10.35;100.00
13348;BME280;6743;49.934;9.138;2023-11-21T11:15:47;100254.94;;;10.34;100.00
13348;BME280;6743;49.934;9.138;2023-11-21T11:18:13;100254.78;;;10.36;100.00
13348;BME280;6743;49.934;9.138;2023-11-21T11:20:42;100250.75;;;10.32;100.00
13348;BME280;6743;49.934;9.138;2023-11-21T11:23:25;100201.16;;;10.00;100.00
13348;BME280;6743;49.934;9.138;2023-11-21T11:26:07;100255.09;;;10.33;100.00
13348;BME280;6743;49.934;9.138;2023-11-21T11:28:44;100253.41;;;10.32;100.00
13348;BME280;6743;49.934;9.138;2023-11-21T11:31:17;100260.22;;;10.34;100.00
13348;BME280;6743;49.934;9.138;2023-11-21T11:33:53;100256.59;;;10.35;100.00
13348;BME280;6743;49.934;9.138;2023-11-21T11:36:28;100261.56;;;10.30;100.00
13348;BME280;6743;49.934;9.138;2023-11-21T11:38:55;100260.38;;;10.33;100.00
13348;BME280;6743;49.934;9.138;2023-11-21T11:41:25;100267.66;;;10.31;100.00
13348;BME280;6743;49.934;9.138;2023-11-21T11:43:53;100267.47;;;10.24;100.00
13348;BME280;6743;49.934;9.138;2023-11-21T11:46:19;100264.53;;;10.27;100.00
13348;BME280;6743;49.934;9.138;2023-11-21T11:48:47;100239.44;;;10.13;100.00
13348;BME280;6743;49.934;9.138;2023-11-21T11:51:14;100262.38;;;10.39;100.00
13348;BME280;6743;49.934;9.138;2023-11-21T11:53:43;100266.41;;;10.51;100.00
13348;BME280;6743;49.934;9.138;2023-11-21T11:56:25;100264.09;;;10.64;100.00
13348;BME280;6743;49.934;9.138;2023-11-21T11:58:53;100265.09;;;10.71;100.00
13348;BME280;6743;49.934;9.138;2023-11-21T12:01:19;100265.25;;;10.78;100.00
13348;BME280;6743;49.934;9.138;2023-11-21T12:04:25;100265.91;;;10.88;100.00
13348;BME280;6743;49.934;9.138;2023-11-21T12:07:00;100270.22;;;10.97;100.00
13348;BME280;6743;49.934;9.138;2023-11-21T12:09:28;100277.50;;;10.95;100.00
13348;BME280;6743;49.934;9.138;2023-11-21T12:11:56;100270.87;;;10.99;100.00
13348;BME280;6743;49.934;9.138;2023-11-21T12:14:23;100276.19;;;10.99;100.00
13348;BME280;6743;49.934;9.138;2023-11-21T12:16:49;100285.63;;;11.01;100.00
13348;BME280;6743;49.934;9.138;2023-11-21T12:19:15;100280.31;;;11.01;100.00
13348;BME280;6743;49.934;9.138;2023-11-21T12:21:41;100286.31;;;11.03;100.00
13348;BME280;6743;49.934;9.138;2023-11-21T12:24:07;100286.16;;;10.97;100.00
13348;BME280;6743;49.934;9.138;2023-11-21T12:26:34;100282.00;;;11.02;100.00
13348;BME280;6743;49.934;9.138;2023-11-21T12:29:00;100282.16;;;11.01;100.00
13348;BME280;6743;49.934;9.138;2023-11-21T12:31:29;100282.50;;;10.98;100.00
13348;BME280;6743;49.934;9.138;2023-11-21T12:33:55;100278.84;;;10.99;100.00
13348;BME280;6743;49.934;9.138;2023-11-21T12:36:22;100287.47;;;11.01;100.00
13348;BME280;6743;49.934;9.138;2023-11-21T12:38:49;100289.94;;;11.02;100.00
13348;BME280;6743;49.934;9.138;2023-11-21T12:41:18;100298.59;;;11.04;100.00
13348;BME280;6743;49.934;9.138;2023-11-21T12:43:44;100296.56;;;11.06;100.00
13348;BME280;6743;49.934;9.138;2023-11-21T12:46:11;100298.44;;;11.06;100.00
13348;BME280;6743;49.934;9.138;2023-11-21T12:48:39;100282.50;;;10.98;100.00
13348;BME280;6743;49.934;9.138;2023-11-21T12:51:08;100304.38;;;11.08;100.00
13348;BME280;6743;49.934;9.138;2023-11-21T12:53:35;100306.72;;;11.11;100.00
13348;BME280;6743;49.934;9.138;2023-11-21T12:56:06;100305.88;;;11.11;100.00
13348;BME280;6743;49.934;9.138;2023-11-21T12:58:34;100312.03;;;11.11;100.00
13348;BME280;6743;49.934;9.138;2023-11-21T13:01:01;100310.38;;;11.10;100.00
13348;BME280;6743;49.934;9.138;2023-11-21T13:03:29;100317.34;;;11.11;100.00